sensor_id;sensor_type;location;lat;lon;timestamp;pressure;altitude;pressure_sealevel;temperature;humidity
58072;BME280;60383;46.626;18.866;2023-12-20T00:02:14;100584.47;;;-0.86;100.00
58072;BME280;60383;46.626;18.866;2023-12-20T00:04:39;100589.84;;;-1.04;100.00
58072;BME280;60383;46.626;18.866;2023-12-20T00:07:05;100592.59;;;-1.23;100.00
58072;BME280;60383;46.626;18.866;2023-12-20T00:09:30;100583.69;;;-1.06;100.00
58072;BME280;60383;46.626;18.866;2023-12-20T00:11:55;100580.75;;;-0.84;100.00
58072;BME280;60383;46.626;18.866;2023-12-20T00:14:22;100574.34;;;-0.81;100.00
58072;BME280;60383;46.626;18.866;2023-12-20T00:16:47;100573.19;;;-1.10;100.00
58072;BME280;60383;46.626;18.866;2023-12-20T00:19:12;100568.41;;;-0.88;100.00
58072;BME280;60383;46.626;18.866;2023-12-20T00:21:38;100561.75;;;-0.81;100.00
58072;BME280;60383;46.626;18.866;2023-12-20T00:24:04;100559.25;;;-0.84;100.00
58072;BME280;60383;46.626;18.866;2023-12-20T00:26:29;100553.97;;;-1.03;100.00
58072;BME280;60383;46.626;18.866;2023-12-20T00:28:55;100549.28;;;-0.99;100.00
58072;BME280;60383;46.626;18.866;2023-12-20T00:31:20;100547.31;;;-0.95;100.00
58072;BME280;60383;46.626;18.866;2023-12-20T00:33:46;100540.56;;;-0.87;100.00
58072;BME280;60383;46.626;18.866;2023-12-20T00:36:12;100538.31;;;-0.94;100.00
58072;BME280;60383;46.626;18.866;2023-12-20T00:38:37;100535.66;;;-0.78;100.00
58072;BME280;60383;46.626;18.866;2023-12-20T00:41:03;100524.81;;;-0.77;100.00
58072;BME280;60383;46.626;18.866;2023-12-20T00:43:28;100519.31;;;-0.58;100.00
58072;BME280;60383;46.626;18.866;2023-12-20T00:45:54;100519.44;;;-0.77;100.00
58072;BME280;60383;46.626;18.866;2023-12-20T00:48:20;100527.16;;;-0.71;100.00
58072;BME280;60383;46.626;18.866;2023-12-20T00:50:46;100520.47;;;-0.79;100.00
58072;BME280;60383;46.626;18.866;2023-12-20T00:53:11;100508.78;;;-0.62;100.00
58072;BME280;60383;46.626;18.866;2023-12-20T00:55:37;100512.25;;;-0.76;100.00
58072;BME280;60383;46.626;18.866;2023-12-20T00:58:03;100512.25;;;-0.76;100.00
58072;BME280;60383;46.626;18.866;2023-12-20T01:00:28;100518.69;;;-0.63;100.00
58072;BME280;60383;46.626;18.866;2023-12-20T01:02:53;100507.28;;;-0.68;100.00
58072;BME280;60383;46.626;18.866;2023-12-20T01:05:19;100501.72;;;-0.81;100.00
58072;BME280;60383;46.626;18.866;2023-12-20T01:07:44;100493.06;;;-0.86;100.00
58072;BME280;60383;46.626;18.866;2023-12-20T01:10:10;100497.50;;;-1.03;100.00
58072;BME280;60383;46.626;18.866;2023-12-20T01:12:36;100488.47;;;-1.02;100.00
58072;BME280;60383;46.626;18.866;2023-12-20T01:15:02;100493.47;;;-1.11;100.00
58072;BME280;60383;46.626;18.866;2023-12-20T01:17:27;100489.34;;;-1.01;100.00
58072;BME280;60383;46.626;18.866;2023-12-20T01:19:53;100482.31;;;-1.04;100.00
58072;BME280;60383;46.626;18.866;2023-12-20T01:22:18;100476.66;;;-1.33;100.00
58072;BME280;60383;46.626;18.866;2023-12-20T01:24:44;100470.41;;;-1.51;100.00
58072;BME280;60383;46.626;18.866;2023-12-20T01:27:09;100464.88;;;-1.30;100.00
58072;BME280;60383;46.626;18.866;2023-12-20T01:29:35;100467.41;;;-1.27;100.00
58072;BME280;60383;46.626;18.866;2023-12-20T01:32:00;100462.09;;;-1.11;100.00
58072;BME280;60383;46.626;18.866;2023-12-20T01:34:26;100461.03;;;-1.42;100.00
58072;BME280;60383;46.626;18.866;2023-12-20T01:36:52;100462.03;;;-1.27;100.00
58072;BME280;60383;46.626;18.866;2023-12-20T01:39:17;100456.41;;;-1.22;100.00
58072;BME280;60383;46.626;18.866;2023-12-20T01:41:43;100446.41;;;-1.54;100.00
58072;BME280;60383;46.626;18.866;2023-12-20T01:44:09;100437.94;;;-1.46;100.00
58072;BME280;60383;46.626;18.866;2023-12-20T01:46:34;100440.63;;;-1.46;100.00
58072;BME280;60383;46.626;18.866;2023-12-20T01:49:00;100433.91;;;-1.37;100.00
58072;BME280;60383;46.626;18.866;2023-12-20T01:51:26;100433.97;;;-1.39;100.00
58072;BME280;60383;46.626;18.866;2023-12-20T01:53:54;100424.06;;;-1.21;100.00
58072;BME280;60383;46.626;18.866;2023-12-20T01:56:20;100427.94;;;-1.26;100.00
58072;BME280;60383;46.626;18.866;2023-12-20T01:58:47;100422.09;;;-1.17;100.00
58072;BME280;60383;46.626;18.866;2023-12-20T02:01:13;100424.03;;;-1.37;100.00
58072;BME280;60383;46.626;18.866;2023-12-20T02:03:42;100419.31;;;-1.67;100.00
58072;BME280;60383;46.626;18.866;2023-12-20T02:06:09;100408.25;;;-1.78;100.00
58072;BME280;60383;46.626;18.866;2023-12-20T02:08:35;100407.78;;;-1.69;100.00
58072;BME280;60383;46.626;18.866;2023-12-20T02:11:01;100399.47;;;-1.64;100.00
58072;BME280;60383;46.626;18.866;2023-12-20T02:13:27;100403.66;;;-1.41;100.00
58072;BME280;60383;46.626;18.866;2023-12-20T02:15:52;100401.41;;;-1.33;100.00
58072;BME280;60383;46.626;18.866;2023-12-20T02:18:18;100408.84;;;-1.38;100.00
58072;BME280;60383;46.626;18.866;2023-12-20T02:20:44;100411.63;;;-1.57;100.00
58072;BME280;60383;46.626;18.866;2023-12-20T02:23:09;100412.66;;;-1.59;100.00
58072;BME280;60383;46.626;18.866;2023-12-20T02:25:35;100406.75;;;-1.66;100.00
58072;BME280;60383;46.626;18.866;2023-12-20T02:28:01;100396.88;;;-1.66;100.00
58072;BME280;60383;46.626;18.866;2023-12-20T02:30:26;100393.25;;;-1.65;100.00
58072;BME280;60383;46.626;18.866;2023-12-20T02:32:52;100381.47;;;-1.62;100.00
58072;BME280;60383;46.626;18.866;2023-12-20T02:35:18;100390.09;;;-1.55;100.00
58072;BME280;60383;46.626;18.866;2023-12-20T02:37:44;100380.38;;;-1.58;100.00
58072;BME280;60383;46.626;18.866;2023-12-20T02:40:09;100375.84;;;-1.57;100.00
58072;BME280;60383;46.626;18.866;2023-12-20T02:42:35;100373.41;;;-1.62;100.00
58072;BME280;60383;46.626;18.866;2023-12-20T02:45:01;100363.88;;;-1.34;100.00
58072;BME280;60383;46.626;18.866;2023-12-20T02:47:26;100358.72;;;-1.21;100.00
58072;BME280;60383;46.626;18.866;2023-12-20T02:49:52;100356.38;;;-1.27;100.00
58072;BME280;60383;46.626;18.866;2023-12-20T02:52:18;100346.84;;;-1.17;100.00
58072;BME280;60383;46.626;18.866;2023-12-20T02:54:43;100348.84;;;-1.05;100.00
58072;BME280;60383;46.626;18.866;2023-12-20T02:57:09;100335.47;;;-1.22;100.00
58072;BME280;60383;46.626;18.866;2023-12-20T02:59:34;100333.19;;;-1.30;100.00
58072;BME280;60383;46.626;18.866;2023-12-20T03:02:00;100336.63;;;-1.10;100.00
58072;BME280;60383;46.626;18.866;2023-12-20T03:04:25;100324.38;;;-1.16;100.00
58072;BME280;60383;46.626;18.866;2023-12-20T03:06:51;100323.34;;;-1.14;100.00
58072;BME280;60383;46.626;18.866;2023-12-20T03:09:16;100320.72;;;-1.31;100.00
58072;BME280;60383;46.626;18.866;2023-12-20T03:11:42;100321.84;;;-1.19;100.00
58072;BME280;60383;46.626;18.866;2023-12-20T03:14:07;100314.72;;;-1.36;100.00
58072;BME280;60383;46.626;18.866;2023-12-20T03:16:32;100320.44;;;-1.26;100.00
58072;BME280;60383;46.626;18.866;2023-12-20T03:18:58;100305.22;;;-1.26;100.00
58072;BME280;60383;46.626;18.866;2023-12-20T03:21:24;100311.03;;;-1.18;100.00
58072;BME280;60383;46.626;18.866;2023-12-20T03:23:49;100303.69;;;-1.14;100.00
58072;BME280;60383;46.626;18.866;2023-12-20T03:26:14;100303.31;;;-1.08;100.00
58072;BME280;60383;46.626;18.866;2023-12-20T03:28:40;100293.88;;;-0.99;100.00
58072;BME280;60383;46.626;18.866;2023-12-20T03:31:05;100297.84;;;-1.06;100.00
58072;BME280;60383;46.626;18.866;2023-12-20T03:33:31;100289.59;;;-1.19;100.00
58072;BME280;60383;46.626;18.866;2023-12-20T03:35:56;100285.56;;;-1.10;100.00
58072;BME280;60383;46.626;18.866;2023-12-20T03:38:22;100277.75;;;-0.99;100.00
58072;BME280;60383;46.626;18.866;2023-12-20T03:40:49;100274.00;;;-0.97;100.00
58072;BME280;60383;46.626;18.866;2023-12-20T03:43:15;100274.19;;;-0.84;100.00
58072;BME280;60383;46.626;18.866;2023-12-20T03:45:42;100275.91;;;-0.99;100.00
58072;BME280;60383;46.626;18.866;2023-12-20T03:48:07;100275.16;;;-1.01;100.00
58072;BME280;60383;46.626;18.866;2023-12-20T03:50:33;100271.31;;;-1.13;100.00
58072;BME280;60383;46.626;18.866;2023-12-20T03:52:59;100270.63;;;-1.16;100.00
58072;BME280;60383;46.626;18.866;2023-12-20T03:55:24;100270.28;;;-1.10;100.00
58072;BME280;60383;46.626;18.866;2023-12-20T03:57:50;100269.84;;;-1.18;100.00
58072;BME280;60383;46.626;18.866;2023-12-20T04:00:15;100270.47;;;-0.97;100.00
58072;BME280;60383;46.626;18.866;2023-12-20T04:02:41;100274.25;;;-1.01;100.00
58072;BME280;60383;46.626;18.866;2023-12-20T04:05:08;100272.19;;;-1.12;100.00
58072;BME280;60383;46.626;18.866;2023-12-20T04:07:33;100268.44;;;-1.25;100.00
58072;BME280;60383;46.626;18.866;2023-12-20T04:09:59;100264.38;;;-1.33;100.00
58072;BME280;60383;46.626;18.866;2023-12-20T04:12:25;100260.22;;;-1.38;100.00
58072;BME280;60383;46.626;18.866;2023-12-20T04:14:51;100263.50;;;-1.17;100.00
58072;BME280;60383;46.626;18.866;2023-12-20T04:17:17;100266.19;;;-1.17;100.00
58072;BME280;60383;46.626;18.866;2023-12-20T04:19:43;100268.38;;;-1.08;100.00
58072;BME280;60383;46.626;18.866;2023-12-20T04:22:08;100258.13;;;-1.17;100.00
58072;BME280;60383;46.626;18.866;2023-12-20T04:24:34;100269.38;;;-1.26;100.00
58072;BME280;60383;46.626;18.866;2023-12-20T04:27:00;100270.69;;;-1.34;100.00
58072;BME280;60383;46.626;18.866;2023-12-20T04:29:25;100270.97;;;-1.38;100.00
58072;BME280;60383;46.626;18.866;2023-12-20T04:31:50;100269.38;;;-1.26;100.00
58072;BME280;60383;46.626;18.866;2023-12-20T04:34:20;100270.28;;;-1.26;100.00
58072;BME280;60383;46.626;18.866;2023-12-20T04:36:46;100266.63;;;-1.25;100.00
58072;BME280;60383;46.626;18.866;2023-12-20T04:39:13;100273.56;;;-1.21;100.00
58072;BME280;60383;46.626;18.866;2023-12-20T04:41:40;100262.66;;;-1.18;100.00
58072;BME280;60383;46.626;18.866;2023-12-20T04:44:05;100272.97;;;-1.26;100.00
58072;BME280;60383;46.626;18.866;2023-12-20T04:46:31;100270.03;;;-1.21;100.00
58072;BME280;60383;46.626;18.866;2023-12-20T04:48:57;100269.09;;;-1.20;100.00
58072;BME280;60383;46.626;18.866;2023-12-20T04:51:22;100262.97;;;-1.40;100.00
58072;BME280;60383;46.626;18.866;2023-12-20T04:53:48;100264.09;;;-1.44;100.00
58072;BME280;60383;46.626;18.866;2023-12-20T04:56:13;100271.09;;;-1.57;100.00
58072;BME280;60383;46.626;18.866;2023-12-20T04:58:38;100272.28;;;-1.63;100.00
58072;BME280;60383;46.626;18.866;2023-12-20T05:01:08;100275.44;;;-1.55;100.00
58072;BME280;60383;46.626;18.866;2023-12-20T05:03:34;100279.06;;;-1.56;100.00
58072;BME280;60383;46.626;18.866;2023-12-20T05:05:59;100270.53;;;-1.64;100.00
58072;BME280;60383;46.626;18.866;2023-12-20T05:08:24;100267.44;;;-1.72;100.00
58072;BME280;60383;46.626;18.866;2023-12-20T05:10:54;100270.53;;;-1.64;100.00
58072;BME280;60383;46.626;18.866;2023-12-20T05:13:19;100266.28;;;-1.35;100.00
58072;BME280;60383;46.626;18.866;2023-12-20T05:15:45;100266.94;;;-1.47;100.00
58072;BME280;60383;46.626;18.866;2023-12-20T05:18:10;100270.97;;;-1.38;100.00
58072;BME280;60383;46.626;18.866;2023-12-20T05:20:36;100274.25;;;-1.17;100.00
58072;BME280;60383;46.626;18.866;2023-12-20T05:23:01;100273.31;;;-1.32;100.00
58072;BME280;60383;46.626;18.866;2023-12-20T05:25:27;100272.97;;;-1.42;100.00
58072;BME280;60383;46.626;18.866;2023-12-20T05:27:52;100287.03;;;-1.54;100.00
58072;BME280;60383;46.626;18.866;2023-12-20T05:30:18;100288.97;;;-1.56;100.00
58072;BME280;60383;46.626;18.866;2023-12-20T05:32:43;100286.06;;;-1.69;100.00
58072;BME280;60383;46.626;18.866;2023-12-20T05:35:09;100289.31;;;-1.80;100.00
58072;BME280;60383;46.626;18.866;2023-12-20T05:37:34;100296.78;;;-2.03;100.00
58072;BME280;60383;46.626;18.866;2023-12-20T05:40:00;100282.72;;;-1.90;100.00
58072;BME280;60383;46.626;18.866;2023-12-20T05:42:25;100289.41;;;-1.82;100.00
58072;BME280;60383;46.626;18.866;2023-12-20T05:44:50;100280.56;;;-1.84;100.00
58072;BME280;60383;46.626;18.866;2023-12-20T05:47:16;100275.56;;;-1.74;100.00
58072;BME280;60383;46.626;18.866;2023-12-20T05:49:43;100263.41;;;-1.81;100.00
58072;BME280;60383;46.626;18.866;2023-12-20T05:52:09;100266.72;;;-1.76;100.00
58072;BME280;60383;46.626;18.866;2023-12-20T05:54:34;100275.72;;;-1.77;100.00
58072;BME280;60383;46.626;18.866;2023-12-20T05:57:00;100267.47;;;-1.90;100.00
58072;BME280;60383;46.626;18.866;2023-12-20T05:59:26;100268.09;;;-2.02;100.00
58072;BME280;60383;46.626;18.866;2023-12-20T06:01:51;100258.78;;;-1.95;100.00
58072;BME280;60383;46.626;18.866;2023-12-20T06:04:16;100260.59;;;-1.96;100.00
58072;BME280;60383;46.626;18.866;2023-12-20T06:06:43;100259.00;;;-1.82;100.00
58072;BME280;60383;46.626;18.866;2023-12-20T06:09:08;100252.84;;;-1.84;100.00
58072;BME280;60383;46.626;18.866;2023-12-20T06:11:34;100253.31;;;-1.76;100.00
58072;BME280;60383;46.626;18.866;2023-12-20T06:13:59;100243.38;;;-1.58;100.00
58072;BME280;60383;46.626;18.866;2023-12-20T06:16:25;100253.22;;;-1.74;100.00
58072;BME280;60383;46.626;18.866;2023-12-20T06:18:50;100247.22;;;-1.80;100.00
58072;BME280;60383;46.626;18.866;2023-12-20T06:21:16;100244.13;;;-1.72;100.00
58072;BME280;60383;46.626;18.866;2023-12-20T06:23:41;100239.34;;;-1.67;100.00
58072;BME280;60383;46.626;18.866;2023-12-20T06:26:07;100250.06;;;-1.49;100.00
58072;BME280;60383;46.626;18.866;2023-12-20T06:28:32;100242.94;;;-1.50;100.00
58072;BME280;60383;46.626;18.866;2023-12-20T06:30:57;100242.75;;;-1.47;100.00
58072;BME280;60383;46.626;18.866;2023-12-20T06:33:23;100243.56;;;-1.45;100.00
58072;BME280;60383;46.626;18.866;2023-12-20T06:35:49;100257.09;;;-1.31;100.00
58072;BME280;60383;46.626;18.866;2023-12-20T06:38:15;100261.53;;;-1.30;100.00
58072;BME280;60383;46.626;18.866;2023-12-20T06:40:40;100250.88;;;-1.15;100.00
58072;BME280;60383;46.626;18.866;2023-12-20T06:43:06;100266.28;;;-0.87;100.00
58072;BME280;60383;46.626;18.866;2023-12-20T06:45:32;100258.31;;;-0.88;100.00
58072;BME280;60383;46.626;18.866;2023-12-20T06:47:57;100262.66;;;-1.02;100.00
58072;BME280;60383;46.626;18.866;2023-12-20T06:50:23;100256.22;;;-0.99;100.00
58072;BME280;60383;46.626;18.866;2023-12-20T06:52:49;100256.50;;;-1.04;100.00
58072;BME280;60383;46.626;18.866;2023-12-20T06:55:15;100243.31;;;-1.08;100.00
58072;BME280;60383;46.626;18.866;2023-12-20T06:57:40;100244.09;;;-1.06;100.00
58072;BME280;60383;46.626;18.866;2023-12-20T07:00:06;100241.06;;;-1.00;100.00
58072;BME280;60383;46.626;18.866;2023-12-20T07:02:32;100239.91;;;-1.12;100.00
58072;BME280;60383;46.626;18.866;2023-12-20T07:04:57;100241.16;;;-1.18;100.00
58072;BME280;60383;46.626;18.866;2023-12-20T07:07:22;100233.50;;;-1.25;100.00
58072;BME280;60383;46.626;18.866;2023-12-20T07:09:49;100231.44;;;-1.20;100.00
58072;BME280;60383;46.626;18.866;2023-12-20T07:12:15;100240.81;;;-1.27;100.00
58072;BME280;60383;46.626;18.866;2023-12-20T07:14:40;100239.22;;;-1.32;100.00
58072;BME280;60383;46.626;18.866;2023-12-20T07:17:06;100237.78;;;-1.21;100.00
58072;BME280;60383;46.626;18.866;2023-12-20T07:19:37;100238.25;;;-0.99;100.00
58072;BME280;60383;46.626;18.866;2023-12-20T07:22:03;100229.09;;;-0.94;100.00
58072;BME280;60383;46.626;18.866;2023-12-20T07:24:29;100233.16;;;-0.87;100.00
58072;BME280;60383;46.626;18.866;2023-12-20T07:26:54;100251.63;;;-1.13;100.00
58072;BME280;60383;46.626;18.866;2023-12-20T07:29:20;100250.41;;;-1.07;100.00
58072;BME280;60383;46.626;18.866;2023-12-20T07:31:45;100256.94;;;-1.11;100.00
58072;BME280;60383;46.626;18.866;2023-12-20T07:34:11;100251.44;;;-0.94;100.00
58072;BME280;60383;46.626;18.866;2023-12-20T07:36:36;100247.19;;;-0.82;100.00
58072;BME280;60383;46.626;18.866;2023-12-20T07:39:02;100255.88;;;-1.09;100.00
58072;BME280;60383;46.626;18.866;2023-12-20T07:41:28;100254.56;;;-0.86;100.00
58072;BME280;60383;46.626;18.866;2023-12-20T07:43:53;100250.59;;;-0.94;100.00
58072;BME280;60383;46.626;18.866;2023-12-20T07:46:21;100265.84;;;-0.95;100.00
58072;BME280;60383;46.626;18.866;2023-12-20T07:48:47;100254.19;;;-0.63;100.00
58072;BME280;60383;46.626;18.866;2023-12-20T07:51:13;100252.94;;;-0.88;100.00
58072;BME280;60383;46.626;18.866;2023-12-20T07:53:38;100251.63;;;-0.81;100.00
58072;BME280;60383;46.626;18.866;2023-12-20T07:56:14;100239.31;;;-1.01;100.00
58072;BME280;60383;46.626;18.866;2023-12-20T07:58:40;100228.06;;;-1.08;100.00
58072;BME280;60383;46.626;18.866;2023-12-20T08:01:06;100220.16;;;-1.27;100.00
58072;BME280;60383;46.626;18.866;2023-12-20T08:03:31;100239.16;;;-0.98;100.00
58072;BME280;60383;46.626;18.866;2023-12-20T08:05:57;100254.38;;;-0.67;100.00
58072;BME280;60383;46.626;18.866;2023-12-20T08:08:24;100256.13;;;-0.35;100.00
58072;BME280;60383;46.626;18.866;2023-12-20T08:10:50;100245.84;;;-0.28;100.00
58072;BME280;60383;46.626;18.866;2023-12-20T08:13:15;100245.41;;;-0.21;100.00
58072;BME280;60383;46.626;18.866;2023-12-20T08:15:41;100251.50;;;-0.33;100.00
58072;BME280;60383;46.626;18.866;2023-12-20T08:18:06;100253.38;;;-0.50;100.00
58072;BME280;60383;46.626;18.866;2023-12-20T08:20:32;100250.75;;;-0.35;100.00
58072;BME280;60383;46.626;18.866;2023-12-20T08:22:57;100249.22;;;-0.25;100.00
58072;BME280;60383;46.626;18.866;2023-12-20T08:25:23;100252.28;;;-0.31;100.00
58072;BME280;60383;46.626;18.866;2023-12-20T08:27:48;100256.88;;;-0.63;100.00
58072;BME280;60383;46.626;18.866;2023-12-20T08:30:14;100267.38;;;-0.59;100.00
58072;BME280;60383;46.626;18.866;2023-12-20T08:32:39;100268.28;;;-0.90;100.00
58072;BME280;60383;46.626;18.866;2023-12-20T08:35:05;100263.81;;;-0.59;100.00
58072;BME280;60383;46.626;18.866;2023-12-20T08:37:31;100255.81;;;-0.45;100.00
58072;BME280;60383;46.626;18.866;2023-12-20T08:39:56;100269.53;;;-0.50;100.00
58072;BME280;60383;46.626;18.866;2023-12-20T08:42:22;100265.00;;;-0.49;100.00
58072;BME280;60383;46.626;18.866;2023-12-20T08:44:49;100256.69;;;-0.60;100.00
58072;BME280;60383;46.626;18.866;2023-12-20T08:47:15;100259.81;;;-0.68;100.00
58072;BME280;60383;46.626;18.866;2023-12-20T08:49:41;100256.56;;;-0.89;100.00
58072;BME280;60383;46.626;18.866;2023-12-20T08:52:06;100261.25;;;-0.93;100.00
58072;BME280;60383;46.626;18.866;2023-12-20T08:54:32;100253.19;;;-1.09;100.00
58072;BME280;60383;46.626;18.866;2023-12-20T08:56:57;100256.59;;;-1.37;100.00
58072;BME280;60383;46.626;18.866;2023-12-20T08:59:23;100244.25;;;-1.09;100.00
58072;BME280;60383;46.626;18.866;2023-12-20T09:01:48;100249.91;;;-0.98;100.00
58072;BME280;60383;46.626;18.866;2023-12-20T09:04:19;100253.28;;;-0.94;100.00
58072;BME280;60383;46.626;18.866;2023-12-20T09:06:45;100240.09;;;-0.99;100.00
58072;BME280;60383;46.626;18.866;2023-12-20T09:09:10;100244.38;;;-0.65;100.00
58072;BME280;60383;46.626;18.866;2023-12-20T09:11:39;100240.56;;;-0.60;100.00
58072;BME280;60383;46.626;18.866;2023-12-20T09:14:04;100249.34;;;-0.73;100.00
58072;BME280;60383;46.626;18.866;2023-12-20T09:16:29;100252.31;;;-1.09;100.00
58072;BME280;60383;46.626;18.866;2023-12-20T09:18:56;100247.16;;;-0.36;100.00
58072;BME280;60383;46.626;18.866;2023-12-20T09:21:22;100242.69;;;-0.51;100.00
58072;BME280;60383;46.626;18.866;2023-12-20T09:23:47;100241.50;;;-0.61;100.00
58072;BME280;60383;46.626;18.866;2023-12-20T09:26:13;100233.22;;;-0.73;100.00
58072;BME280;60383;46.626;18.866;2023-12-20T09:28:38;100231.59;;;-0.45;100.00
58072;BME280;60383;46.626;18.866;2023-12-20T09:31:05;100231.94;;;-0.51;100.00
58072;BME280;60383;46.626;18.866;2023-12-20T09:33:32;100228.06;;;-0.61;100.00
58072;BME280;60383;46.626;18.866;2023-12-20T09:35:58;100235.78;;;-0.55;100.00
58072;BME280;60383;46.626;18.866;2023-12-20T09:38:23;100234.03;;;-0.56;100.00
58072;BME280;60383;46.626;18.866;2023-12-20T09:40:49;100229.44;;;-0.54;100.00
58072;BME280;60383;46.626;18.866;2023-12-20T09:43:15;100219.56;;;-0.70;100.00
58072;BME280;60383;46.626;18.866;2023-12-20T09:45:46;100226.09;;;-0.43;100.00
58072;BME280;60383;46.626;18.866;2023-12-20T09:48:12;100212.88;;;-0.18;100.00
58072;BME280;60383;46.626;18.866;2023-12-20T09:50:40;100211.09;;;0.12;100.00
58072;BME280;60383;46.626;18.866;2023-12-20T09:53:08;100205.41;;;0.02;100.00
58072;BME280;60383;46.626;18.866;2023-12-20T09:55:35;100202.31;;;0.37;100.00
58072;BME280;60383;46.626;18.866;2023-12-20T09:58:01;100198.50;;;0.27;100.00
58072;BME280;60383;46.626;18.866;2023-12-20T10:00:27;100200.41;;;0.54;100.00
58072;BME280;60383;46.626;18.866;2023-12-20T10:02:59;100198.50;;;0.27;100.00
58072;BME280;60383;46.626;18.866;2023-12-20T10:05:30;100201.38;;;0.38;100.00
58072;BME280;60383;46.626;18.866;2023-12-20T10:07:56;100182.47;;;0.67;100.00
58072;BME280;60383;46.626;18.866;2023-12-20T10:10:22;100190.97;;;0.46;100.00
58072;BME280;60383;46.626;18.866;2023-12-20T10:13:08;100175.56;;;0.48;100.00
58072;BME280;60383;46.626;18.866;2023-12-20T10:15:34;100175.94;;;0.42;100.00
58072;BME280;60383;46.626;18.866;2023-12-20T10:18:01;100172.03;;;0.19;100.00
58072;BME280;60383;46.626;18.866;2023-12-20T10:20:27;100176.00;;;-0.01;100.00
58072;BME280;60383;46.626;18.866;2023-12-20T10:22:55;100174.34;;;0.25;100.00
58072;BME280;60383;46.626;18.866;2023-12-20T10:25:21;100174.19;;;0.56;100.00
58072;BME280;60383;46.626;18.866;2023-12-20T10:27:46;100179.19;;;0.62;100.00
58072;BME280;60383;46.626;18.866;2023-12-20T10:30:16;100181.06;;;0.89;100.00
58072;BME280;60383;46.626;18.866;2023-12-20T10:32:41;100166.88;;;1.13;100.00
58072;BME280;60383;46.626;18.866;2023-12-20T10:35:08;100182.16;;;1.26;100.00
58072;BME280;60383;46.626;18.866;2023-12-20T10:37:37;100184.09;;;1.37;100.00
58072;BME280;60383;46.626;18.866;2023-12-20T10:40:04;100181.56;;;1.49;99.90
58072;BME280;60383;46.626;18.866;2023-12-20T10:42:31;100184.28;;;1.74;98.22
58072;BME280;60383;46.626;18.866;2023-12-20T10:44:59;100185.47;;;1.83;98.12
58072;BME280;60383;46.626;18.866;2023-12-20T10:47:25;100182.56;;;1.99;98.24
58072;BME280;60383;46.626;18.866;2023-12-20T10:49:52;100174.22;;;2.28;98.63
58072;BME280;60383;46.626;18.866;2023-12-20T10:52:18;100178.97;;;2.37;96.25
58072;BME280;60383;46.626;18.866;2023-12-20T10:54:44;100174.97;;;2.43;95.45
58072;BME280;60383;46.626;18.866;2023-12-20T10:57:10;100176.13;;;2.52;94.06
58072;BME280;60383;46.626;18.866;2023-12-20T10:59:37;100175.69;;;2.45;94.50
58072;BME280;60383;46.626;18.866;2023-12-20T11:02:04;100183.66;;;2.60;95.84
58072;BME280;60383;46.626;18.866;2023-12-20T11:11:12;100162.34;;;4.33;86.62
58072;BME280;60383;46.626;18.866;2023-12-20T11:13:45;100163.56;;;3.95;90.77
58072;BME280;60383;46.626;18.866;2023-12-20T11:16:14;100151.13;;;4.26;91.06
58072;BME280;60383;46.626;18.866;2023-12-20T11:18:40;100146.44;;;4.51;88.51
58072;BME280;60383;46.626;18.866;2023-12-20T11:21:06;100143.13;;;4.36;89.85
58072;BME280;60383;46.626;18.866;2023-12-20T11:23:42;100135.00;;;4.47;89.95
58072;BME280;60383;46.626;18.866;2023-12-20T11:26:10;100133.75;;;4.63;88.59
58072;BME280;60383;46.626;18.866;2023-12-20T11:28:35;100133.88;;;4.50;89.00
58072;BME280;60383;46.626;18.866;2023-12-20T11:31:01;100130.16;;;4.40;91.08
58072;BME280;60383;46.626;18.866;2023-12-20T11:33:36;100129.22;;;4.29;91.37
58072;BME280;60383;46.626;18.866;2023-12-20T11:36:03;100121.69;;;4.10;92.49
58072;BME280;60383;46.626;18.866;2023-12-20T11:38:37;100114.41;;;4.45;92.29
58072;BME280;60383;46.626;18.866;2023-12-20T11:41:06;100113.78;;;4.41;92.54
58072;BME280;60383;46.626;18.866;2023-12-20T11:43:36;100096.00;;;4.60;93.44
58072;BME280;60383;46.626;18.866;2023-12-20T11:46:08;100084.34;;;5.13;86.49
58072;BME280;60383;46.626;18.866;2023-12-20T11:48:38;100084.94;;;5.17;86.31
58072;BME280;60383;46.626;18.866;2023-12-20T11:51:11;100077.72;;;5.27;85.62
58072;BME280;60383;46.626;18.866;2023-12-20T11:53:37;100083.50;;;5.34;85.61
58072;BME280;60383;46.626;18.866;2023-12-20T11:56:04;100064.81;;;5.40;85.12
58072;BME280;60383;46.626;18.866;2023-12-20T11:58:31;100071.91;;;5.32;84.30
58072;BME280;60383;46.626;18.866;2023-12-20T12:00:57;100067.66;;;5.39;86.42
58072;BME280;60383;46.626;18.866;2023-12-20T12:03:22;100069.31;;;5.30;85.94
58072;BME280;60383;46.626;18.866;2023-12-20T12:05:49;100070.84;;;5.44;84.62
58072;BME280;60383;46.626;18.866;2023-12-20T12:08:15;100060.97;;;5.43;83.26
58072;BME280;60383;46.626;18.866;2023-12-20T12:10:40;100068.00;;;5.24;85.24
58072;BME280;60383;46.626;18.866;2023-12-20T12:13:06;100063.06;;;5.39;85.77
58072;BME280;60383;46.626;18.866;2023-12-20T12:15:31;100067.66;;;5.39;84.26
58072;BME280;60383;46.626;18.866;2023-12-20T12:17:57;100067.47;;;5.31;85.95
58072;BME280;60383;46.626;18.866;2023-12-20T12:20:24;100070.56;;;5.26;86.73
58072;BME280;60383;46.626;18.866;2023-12-20T12:23:01;100074.03;;;5.28;86.19
58072;BME280;60383;46.626;18.866;2023-12-20T12:25:28;100065.13;;;5.26;86.89
58072;BME280;60383;46.626;18.866;2023-12-20T12:27:55;100070.78;;;5.13;87.85
58072;BME280;60383;46.626;18.866;2023-12-20T12:30:21;100077.13;;;5.23;87.33
58072;BME280;60383;46.626;18.866;2023-12-20T12:32:47;100075.69;;;5.19;87.54
58072;BME280;60383;46.626;18.866;2023-12-20T12:35:13;100075.25;;;5.03;87.86